Abegall, Kentucky
Current Conditions -  °F | °C
As of 5:15 PM on Friday 24 Oct 2014 (Local Time) from KFGX Reporting Station
Clear Clear  
Wind Chill: 18°   Ceiling: Unl
Heat Index: 18°   Visibility: 10mi
Dew Point:   Wind: 3mph
Humidity: 47%   Direction: 200°SSW
Pressure: 30.05"   Gusts: NA
Location:  38.6546°N, 83.9578°W
Report Text: KFGX 242115Z AUTO 20003KT 10SM CLR 18/06 A3005 RMK AO2 T01770062
Loading
Personal Weather Stations






























Interactive Weather Map
Tropical Storm Tracking
New forecast layout! Learn more

10-Day Weather Forecast

Advertisements
Track Severe Weather on mobile